sensor_id;sensor_type;location;lat;lon;timestamp;P1;durP1;ratioP1;P2;durP2;ratioP2
76610;SDS011;65503;48.534;9.062;2024-03-17T00:01:50;8.70;;;3.58;;
76610;SDS011;65503;48.534;9.062;2024-03-17T00:04:15;6.07;;;3.42;;
76610;SDS011;65503;48.534;9.062;2024-03-17T00:06:41;5.95;;;3.15;;
76610;SDS011;65503;48.534;9.062;2024-03-17T00:09:06;6.82;;;3.40;;
76610;SDS011;65503;48.534;9.062;2024-03-17T00:11:34;7.50;;;4.10;;
76610;SDS011;65503;48.534;9.062;2024-03-17T00:14:03;7.63;;;3.90;;
76610;SDS011;65503;48.534;9.062;2024-03-17T00:16:30;9.45;;;4.28;;
76610;SDS011;65503;48.534;9.062;2024-03-17T00:18:55;11.30;;;5.20;;
76610;SDS011;65503;48.534;9.062;2024-03-17T00:21:21;8.38;;;4.22;;
76610;SDS011;65503;48.534;9.062;2024-03-17T00:23:47;10.45;;;5.25;;
76610;SDS011;65503;48.534;9.062;2024-03-17T00:26:14;9.77;;;4.68;;
76610;SDS011;65503;48.534;9.062;2024-03-17T00:28:41;11.02;;;5.20;;
76610;SDS011;65503;48.534;9.062;2024-03-17T00:31:07;13.27;;;5.53;;
76610;SDS011;65503;48.534;9.062;2024-03-17T00:33:35;9.05;;;5.03;;
76610;SDS011;65503;48.534;9.062;2024-03-17T00:36:01;9.60;;;3.88;;
76610;SDS011;65503;48.534;9.062;2024-03-17T00:38:26;9.23;;;4.88;;
76610;SDS011;65503;48.534;9.062;2024-03-17T00:40:52;10.35;;;4.97;;
76610;SDS011;65503;48.534;9.062;2024-03-17T00:43:18;9.45;;;4.28;;
76610;SDS011;65503;48.534;9.062;2024-03-17T00:45:44;9.38;;;4.65;;
76610;SDS011;65503;48.534;9.062;2024-03-17T00:48:09;9.95;;;4.53;;
76610;SDS011;65503;48.534;9.062;2024-03-17T00:50:35;7.95;;;4.55;;
76610;SDS011;65503;48.534;9.062;2024-03-17T00:53:00;7.82;;;4.15;;
76610;SDS011;65503;48.534;9.062;2024-03-17T00:55:28;7.72;;;4.25;;
76610;SDS011;65503;48.534;9.062;2024-03-17T00:57:54;9.77;;;4.55;;
76610;SDS011;65503;48.534;9.062;2024-03-17T01:00:19;8.07;;;4.60;;
76610;SDS011;65503;48.534;9.062;2024-03-17T01:02:45;12.32;;;5.50;;
76610;SDS011;65503;48.534;9.062;2024-03-17T01:05:11;9.93;;;5.00;;
76610;SDS011;65503;48.534;9.062;2024-03-17T01:07:37;8.93;;;4.57;;
76610;SDS011;65503;48.534;9.062;2024-03-17T01:10:02;11.30;;;4.95;;
76610;SDS011;65503;48.534;9.062;2024-03-17T01:12:28;11.07;;;5.38;;
76610;SDS011;65503;48.534;9.062;2024-03-17T01:14:54;8.77;;;4.72;;
76610;SDS011;65503;48.534;9.062;2024-03-17T01:17:19;11.40;;;5.15;;
76610;SDS011;65503;48.534;9.062;2024-03-17T01:19:45;11.73;;;5.18;;
76610;SDS011;65503;48.534;9.062;2024-03-17T01:22:11;9.27;;;4.95;;
76610;SDS011;65503;48.534;9.062;2024-03-17T01:24:36;9.75;;;5.38;;
76610;SDS011;65503;48.534;9.062;2024-03-17T01:27:04;7.28;;;4.45;;
76610;SDS011;65503;48.534;9.062;2024-03-17T01:29:30;8.20;;;4.85;;
76610;SDS011;65503;48.534;9.062;2024-03-17T01:31:56;10.13;;;4.50;;
76610;SDS011;65503;48.534;9.062;2024-03-17T01:34:21;10.40;;;4.78;;
76610;SDS011;65503;48.534;9.062;2024-03-17T01:36:47;9.95;;;4.60;;
76610;SDS011;65503;48.534;9.062;2024-03-17T01:39:12;8.48;;;4.65;;
76610;SDS011;65503;48.534;9.062;2024-03-17T01:41:38;9.05;;;4.22;;
76610;SDS011;65503;48.534;9.062;2024-03-17T01:44:04;7.55;;;4.25;;
76610;SDS011;65503;48.534;9.062;2024-03-17T01:46:30;9.30;;;4.53;;
76610;SDS011;65503;48.534;9.062;2024-03-17T01:48:56;7.30;;;4.28;;
76610;SDS011;65503;48.534;9.062;2024-03-17T01:51:22;13.57;;;5.95;;
76610;SDS011;65503;48.534;9.062;2024-03-17T01:53:49;10.52;;;4.72;;
76610;SDS011;65503;48.534;9.062;2024-03-17T01:56:16;10.48;;;4.70;;
76610;SDS011;65503;48.534;9.062;2024-03-17T01:58:43;12.85;;;6.65;;
76610;SDS011;65503;48.534;9.062;2024-03-17T02:01:10;10.95;;;5.68;;
76610;SDS011;65503;48.534;9.062;2024-03-17T02:03:39;14.40;;;5.05;;
76610;SDS011;65503;48.534;9.062;2024-03-17T02:06:07;10.27;;;5.38;;
76610;SDS011;65503;48.534;9.062;2024-03-17T02:08:49;10.57;;;6.40;;
76610;SDS011;65503;48.534;9.062;2024-03-17T02:11:23;12.40;;;5.82;;
76610;SDS011;65503;48.534;9.062;2024-03-17T02:13:52;9.63;;;5.00;;
76610;SDS011;65503;48.534;9.062;2024-03-17T02:16:18;9.35;;;4.43;;
76610;SDS011;65503;48.534;9.062;2024-03-17T02:18:45;9.23;;;4.32;;
76610;SDS011;65503;48.534;9.062;2024-03-17T02:21:14;8.85;;;4.47;;
76610;SDS011;65503;48.534;9.062;2024-03-17T02:23:43;7.70;;;3.90;;
76610;SDS011;65503;48.534;9.062;2024-03-17T02:26:09;6.82;;;3.67;;
76610;SDS011;65503;48.534;9.062;2024-03-17T02:28:42;7.43;;;3.90;;
76610;SDS011;65503;48.534;9.062;2024-03-17T02:31:08;8.18;;;3.70;;
76610;SDS011;65503;48.534;9.062;2024-03-17T02:33:35;7.15;;;3.97;;
76610;SDS011;65503;48.534;9.062;2024-03-17T02:36:02;8.30;;;3.65;;
76610;SDS011;65503;48.534;9.062;2024-03-17T02:38:29;7.22;;;3.83;;
76610;SDS011;65503;48.534;9.062;2024-03-17T02:41:14;7.07;;;3.75;;
76610;SDS011;65503;48.534;9.062;2024-03-17T02:43:41;8.88;;;3.90;;
76610;SDS011;65503;48.534;9.062;2024-03-17T02:46:06;10.57;;;5.45;;
76610;SDS011;65503;48.534;9.062;2024-03-17T02:48:33;12.85;;;6.60;;
76610;SDS011;65503;48.534;9.062;2024-03-17T02:51:00;17.38;;;7.60;;
76610;SDS011;65503;48.534;9.062;2024-03-17T02:53:25;15.43;;;6.38;;
76610;SDS011;65503;48.534;9.062;2024-03-17T02:55:51;10.43;;;5.35;;
76610;SDS011;65503;48.534;9.062;2024-03-17T02:58:16;11.02;;;5.28;;
76610;SDS011;65503;48.534;9.062;2024-03-17T03:00:42;8.50;;;4.47;;
76610;SDS011;65503;48.534;9.062;2024-03-17T03:03:08;10.82;;;6.05;;
76610;SDS011;65503;48.534;9.062;2024-03-17T03:05:33;12.20;;;6.40;;
76610;SDS011;65503;48.534;9.062;2024-03-17T03:07:59;12.65;;;6.03;;
76610;SDS011;65503;48.534;9.062;2024-03-17T03:10:24;10.88;;;6.03;;
76610;SDS011;65503;48.534;9.062;2024-03-17T03:12:50;15.75;;;6.40;;
76610;SDS011;65503;48.534;9.062;2024-03-17T03:15:16;12.65;;;6.68;;
76610;SDS011;65503;48.534;9.062;2024-03-17T03:17:42;11.48;;;6.30;;
76610;SDS011;65503;48.534;9.062;2024-03-17T03:20:07;13.45;;;7.30;;
76610;SDS011;65503;48.534;9.062;2024-03-17T03:22:34;14.45;;;6.68;;
76610;SDS011;65503;48.534;9.062;2024-03-17T03:24:59;12.82;;;6.68;;
76610;SDS011;65503;48.534;9.062;2024-03-17T03:27:25;11.43;;;6.75;;
76610;SDS011;65503;48.534;9.062;2024-03-17T03:29:50;12.43;;;5.70;;
76610;SDS011;65503;48.534;9.062;2024-03-17T03:32:16;10.10;;;5.28;;
76610;SDS011;65503;48.534;9.062;2024-03-17T03:34:42;10.82;;;5.13;;
76610;SDS011;65503;48.534;9.062;2024-03-17T03:37:08;11.55;;;5.90;;
76610;SDS011;65503;48.534;9.062;2024-03-17T03:39:36;10.20;;;5.28;;
76610;SDS011;65503;48.534;9.062;2024-03-17T03:42:01;9.80;;;4.97;;
76610;SDS011;65503;48.534;9.062;2024-03-17T03:44:27;8.77;;;4.70;;
76610;SDS011;65503;48.534;9.062;2024-03-17T03:46:53;10.25;;;4.43;;
76610;SDS011;65503;48.534;9.062;2024-03-17T03:49:24;10.70;;;4.78;;
76610;SDS011;65503;48.534;9.062;2024-03-17T03:51:50;9.10;;;4.82;;
76610;SDS011;65503;48.534;9.062;2024-03-17T03:54:16;8.93;;;4.85;;
76610;SDS011;65503;48.534;9.062;2024-03-17T03:56:41;9.18;;;5.32;;
76610;SDS011;65503;48.534;9.062;2024-03-17T03:59:07;7.35;;;4.28;;
76610;SDS011;65503;48.534;9.062;2024-03-17T04:01:32;8.40;;;4.50;;
76610;SDS011;65503;48.534;9.062;2024-03-17T04:03:58;8.82;;;5.25;;
76610;SDS011;65503;48.534;9.062;2024-03-17T04:06:23;10.20;;;5.43;;
76610;SDS011;65503;48.534;9.062;2024-03-17T04:08:49;12.20;;;5.05;;
76610;SDS011;65503;48.534;9.062;2024-03-17T04:11:15;9.75;;;5.20;;
76610;SDS011;65503;48.534;9.062;2024-03-17T04:13:41;7.88;;;4.63;;
76610;SDS011;65503;48.534;9.062;2024-03-17T04:16:07;8.70;;;4.82;;
76610;SDS011;65503;48.534;9.062;2024-03-17T04:18:33;8.23;;;4.20;;
76610;SDS011;65503;48.534;9.062;2024-03-17T04:21:04;11.20;;;4.60;;
76610;SDS011;65503;48.534;9.062;2024-03-17T04:23:32;8.88;;;4.47;;
76610;SDS011;65503;48.534;9.062;2024-03-17T04:25:58;10.85;;;5.30;;
76610;SDS011;65503;48.534;9.062;2024-03-17T04:28:24;9.02;;;4.82;;
76610;SDS011;65503;48.534;9.062;2024-03-17T04:30:50;10.50;;;5.07;;
76610;SDS011;65503;48.534;9.062;2024-03-17T04:33:15;11.23;;;6.30;;
76610;SDS011;65503;48.534;9.062;2024-03-17T04:35:44;10.75;;;5.82;;
76610;SDS011;65503;48.534;9.062;2024-03-17T04:38:10;12.98;;;6.40;;
76610;SDS011;65503;48.534;9.062;2024-03-17T04:40:41;11.05;;;5.40;;
76610;SDS011;65503;48.534;9.062;2024-03-17T04:43:07;12.38;;;5.95;;
76610;SDS011;65503;48.534;9.062;2024-03-17T04:45:33;11.10;;;5.63;;
76610;SDS011;65503;48.534;9.062;2024-03-17T04:47:59;12.65;;;6.40;;
76610;SDS011;65503;48.534;9.062;2024-03-17T04:50:25;13.20;;;6.93;;
76610;SDS011;65503;48.534;9.062;2024-03-17T04:52:51;12.70;;;5.55;;
76610;SDS011;65503;48.534;9.062;2024-03-17T04:55:17;7.90;;;4.18;;
76610;SDS011;65503;48.534;9.062;2024-03-17T04:57:44;8.50;;;3.78;;
76610;SDS011;65503;48.534;9.062;2024-03-17T05:00:10;6.75;;;3.30;;
76610;SDS011;65503;48.534;9.062;2024-03-17T05:02:38;6.68;;;3.20;;
76610;SDS011;65503;48.534;9.062;2024-03-17T05:05:04;7.55;;;3.83;;
76610;SDS011;65503;48.534;9.062;2024-03-17T05:07:31;7.82;;;3.78;;
76610;SDS011;65503;48.534;9.062;2024-03-17T05:09:56;6.25;;;3.65;;
76610;SDS011;65503;48.534;9.062;2024-03-17T05:12:22;6.40;;;3.35;;
76610;SDS011;65503;48.534;9.062;2024-03-17T05:14:48;6.35;;;3.28;;
76610;SDS011;65503;48.534;9.062;2024-03-17T05:17:13;7.63;;;3.58;;
76610;SDS011;65503;48.534;9.062;2024-03-17T05:19:39;14.15;;;4.80;;
76610;SDS011;65503;48.534;9.062;2024-03-17T05:22:04;7.28;;;3.70;;
76610;SDS011;65503;48.534;9.062;2024-03-17T05:24:30;7.53;;;4.10;;
76610;SDS011;65503;48.534;9.062;2024-03-17T05:26:56;8.23;;;3.83;;
76610;SDS011;65503;48.534;9.062;2024-03-17T05:29:21;7.57;;;3.78;;
76610;SDS011;65503;48.534;9.062;2024-03-17T05:31:48;7.95;;;4.07;;
76610;SDS011;65503;48.534;9.062;2024-03-17T05:34:14;10.23;;;4.32;;
76610;SDS011;65503;48.534;9.062;2024-03-17T05:36:39;11.25;;;4.53;;
76610;SDS011;65503;48.534;9.062;2024-03-17T05:39:05;8.55;;;4.38;;
76610;SDS011;65503;48.534;9.062;2024-03-17T05:41:30;9.48;;;4.43;;
76610;SDS011;65503;48.534;9.062;2024-03-17T05:43:56;8.88;;;4.40;;
76610;SDS011;65503;48.534;9.062;2024-03-17T05:46:23;12.15;;;4.93;;
76610;SDS011;65503;48.534;9.062;2024-03-17T05:48:51;7.57;;;4.18;;
76610;SDS011;65503;48.534;9.062;2024-03-17T05:51:16;9.43;;;4.22;;
76610;SDS011;65503;48.534;9.062;2024-03-17T05:53:42;7.38;;;3.80;;
76610;SDS011;65503;48.534;9.062;2024-03-17T05:56:11;8.80;;;3.97;;
76610;SDS011;65503;48.534;9.062;2024-03-17T05:58:38;7.90;;;3.95;;
76610;SDS011;65503;48.534;9.062;2024-03-17T06:01:07;8.15;;;3.92;;
76610;SDS011;65503;48.534;9.062;2024-03-17T06:03:33;8.07;;;4.30;;
76610;SDS011;65503;48.534;9.062;2024-03-17T06:06:01;9.35;;;4.30;;
76610;SDS011;65503;48.534;9.062;2024-03-17T06:08:27;6.65;;;3.40;;
76610;SDS011;65503;48.534;9.062;2024-03-17T06:10:53;4.93;;;2.58;;
76610;SDS011;65503;48.534;9.062;2024-03-17T06:13:18;6.05;;;2.60;;
76610;SDS011;65503;48.534;9.062;2024-03-17T06:15:44;6.38;;;2.92;;
76610;SDS011;65503;48.534;9.062;2024-03-17T06:18:12;7.28;;;4.07;;
76610;SDS011;65503;48.534;9.062;2024-03-17T06:20:46;6.20;;;3.20;;
76610;SDS011;65503;48.534;9.062;2024-03-17T06:23:13;6.50;;;3.22;;
76610;SDS011;65503;48.534;9.062;2024-03-17T06:25:47;10.80;;;3.30;;
76610;SDS011;65503;48.534;9.062;2024-03-17T06:28:14;5.60;;;2.60;;
76610;SDS011;65503;48.534;9.062;2024-03-17T06:33:11;8.23;;;3.40;;
76610;SDS011;65503;48.534;9.062;2024-03-17T06:35:37;6.13;;;3.08;;
76610;SDS011;65503;48.534;9.062;2024-03-17T06:38:03;7.25;;;3.33;;
76610;SDS011;65503;48.534;9.062;2024-03-17T06:40:29;6.13;;;3.20;;
76610;SDS011;65503;48.534;9.062;2024-03-17T06:42:55;5.35;;;2.67;;
76610;SDS011;65503;48.534;9.062;2024-03-17T06:45:21;5.63;;;2.60;;
76610;SDS011;65503;48.534;9.062;2024-03-17T06:47:47;4.90;;;2.47;;
76610;SDS011;65503;48.534;9.062;2024-03-17T06:50:13;5.40;;;2.38;;
76610;SDS011;65503;48.534;9.062;2024-03-17T06:52:38;6.55;;;3.03;;
76610;SDS011;65503;48.534;9.062;2024-03-17T06:55:04;8.30;;;4.72;;
76610;SDS011;65503;48.534;9.062;2024-03-17T06:57:31;8.02;;;4.28;;
76610;SDS011;65503;48.534;9.062;2024-03-17T06:59:59;10.60;;;3.92;;
76610;SDS011;65503;48.534;9.062;2024-03-17T07:02:25;6.63;;;3.22;;
76610;SDS011;65503;48.534;9.062;2024-03-17T07:04:51;7.65;;;3.63;;
76610;SDS011;65503;48.534;9.062;2024-03-17T07:07:16;7.88;;;4.38;;
76610;SDS011;65503;48.534;9.062;2024-03-17T07:09:42;8.48;;;4.25;;
76610;SDS011;65503;48.534;9.062;2024-03-17T07:12:08;6.95;;;3.97;;
76610;SDS011;65503;48.534;9.062;2024-03-17T07:14:35;6.07;;;3.38;;
76610;SDS011;65503;48.534;9.062;2024-03-17T07:17:01;7.10;;;3.75;;
76610;SDS011;65503;48.534;9.062;2024-03-17T07:19:26;7.78;;;4.32;;
76610;SDS011;65503;48.534;9.062;2024-03-17T07:21:53;7.80;;;4.05;;
76610;SDS011;65503;48.534;9.062;2024-03-17T07:24:20;6.63;;;3.75;;
76610;SDS011;65503;48.534;9.062;2024-03-17T07:26:47;7.13;;;4.25;;
76610;SDS011;65503;48.534;9.062;2024-03-17T07:29:14;7.93;;;4.05;;
76610;SDS011;65503;48.534;9.062;2024-03-17T07:31:40;6.22;;;3.25;;
76610;SDS011;65503;48.534;9.062;2024-03-17T07:34:05;8.57;;;5.25;;
76610;SDS011;65503;48.534;9.062;2024-03-17T07:36:31;9.88;;;5.40;;
76610;SDS011;65503;48.534;9.062;2024-03-17T07:38:56;9.70;;;4.60;;
76610;SDS011;65503;48.534;9.062;2024-03-17T07:41:22;8.85;;;4.15;;
76610;SDS011;65503;48.534;9.062;2024-03-17T07:43:49;6.97;;;3.92;;
76610;SDS011;65503;48.534;9.062;2024-03-17T07:46:15;7.18;;;4.43;;
76610;SDS011;65503;48.534;9.062;2024-03-17T07:48:41;9.52;;;3.75;;
76610;SDS011;65503;48.534;9.062;2024-03-17T07:51:11;7.70;;;4.47;;
76610;SDS011;65503;48.534;9.062;2024-03-17T07:53:38;11.23;;;6.43;;
76610;SDS011;65503;48.534;9.062;2024-03-17T07:56:07;12.70;;;7.72;;
76610;SDS011;65503;48.534;9.062;2024-03-17T07:58:40;14.52;;;8.35;;
76610;SDS011;65503;48.534;9.062;2024-03-17T08:03:44;8.13;;;4.40;;
76610;SDS011;65503;48.534;9.062;2024-03-17T08:06:11;8.23;;;5.22;;
76610;SDS011;65503;48.534;9.062;2024-03-17T08:08:36;8.02;;;4.72;;
76610;SDS011;65503;48.534;9.062;2024-03-17T08:11:03;9.32;;;5.35;;
76610;SDS011;65503;48.534;9.062;2024-03-17T08:13:29;7.22;;;4.22;;
76610;SDS011;65503;48.534;9.062;2024-03-17T08:15:59;7.88;;;4.63;;
76610;SDS011;65503;48.534;9.062;2024-03-17T08:18:32;7.90;;;4.00;;
76610;SDS011;65503;48.534;9.062;2024-03-17T08:21:00;7.57;;;3.95;;
76610;SDS011;65503;48.534;9.062;2024-03-17T08:23:26;8.82;;;4.53;;
76610;SDS011;65503;48.534;9.062;2024-03-17T08:25:53;7.43;;;4.20;;
76610;SDS011;65503;48.534;9.062;2024-03-17T08:28:22;7.65;;;4.32;;
76610;SDS011;65503;48.534;9.062;2024-03-17T08:30:58;8.80;;;4.93;;
76610;SDS011;65503;48.534;9.062;2024-03-17T08:33:28;7.15;;;4.50;;
76610;SDS011;65503;48.534;9.062;2024-03-17T08:35:58;7.53;;;4.35;;
76610;SDS011;65503;48.534;9.062;2024-03-17T08:38:24;9.27;;;5.68;;
76610;SDS011;65503;48.534;9.062;2024-03-17T08:40:51;9.32;;;5.68;;
76610;SDS011;65503;48.534;9.062;2024-03-17T08:43:21;7.63;;;4.47;;
76610;SDS011;65503;48.534;9.062;2024-03-17T08:45:54;8.93;;;4.28;;
76610;SDS011;65503;48.534;9.062;2024-03-17T08:48:25;6.28;;;3.67;;
76610;SDS011;65503;48.534;9.062;2024-03-17T08:50:52;6.65;;;4.10;;
76610;SDS011;65503;48.534;9.062;2024-03-17T08:53:21;6.43;;;4.15;;
76610;SDS011;65503;48.534;9.062;2024-03-17T08:55:47;7.50;;;3.60;;
76610;SDS011;65503;48.534;9.062;2024-03-17T08:58:12;7.38;;;3.45;;
76610;SDS011;65503;48.534;9.062;2024-03-17T09:00:38;7.50;;;4.80;;
76610;SDS011;65503;48.534;9.062;2024-03-17T09:03:05;9.70;;;4.78;;
76610;SDS011;65503;48.534;9.062;2024-03-17T09:05:34;9.10;;;5.07;;
76610;SDS011;65503;48.534;9.062;2024-03-17T09:07:59;9.95;;;4.82;;
76610;SDS011;65503;48.534;9.062;2024-03-17T09:10:26;8.13;;;4.40;;
76610;SDS011;65503;48.534;9.062;2024-03-17T09:12:51;8.30;;;4.72;;
76610;SDS011;65503;48.534;9.062;2024-03-17T09:15:17;9.07;;;4.35;;
76610;SDS011;65503;48.534;9.062;2024-03-17T09:17:42;7.63;;;4.78;;
76610;SDS011;65503;48.534;9.062;2024-03-17T09:20:10;8.65;;;4.75;;
76610;SDS011;65503;48.534;9.062;2024-03-17T09:22:38;8.10;;;4.75;;
76610;SDS011;65503;48.534;9.062;2024-03-17T09:25:05;7.00;;;3.97;;
76610;SDS011;65503;48.534;9.062;2024-03-17T09:27:32;9.32;;;4.28;;
76610;SDS011;65503;48.534;9.062;2024-03-17T09:29:59;8.15;;;4.40;;
76610;SDS011;65503;48.534;9.062;2024-03-17T09:32:25;6.95;;;3.45;;
76610;SDS011;65503;48.534;9.062;2024-03-17T09:34:51;6.53;;;3.60;;
76610;SDS011;65503;48.534;9.062;2024-03-17T09:37:17;7.40;;;3.53;;
76610;SDS011;65503;48.534;9.062;2024-03-17T09:39:42;7.95;;;4.30;;
76610;SDS011;65503;48.534;9.062;2024-03-17T09:42:18;6.80;;;3.70;;
76610;SDS011;65503;48.534;9.062;2024-03-17T09:44:48;6.13;;;3.97;;
76610;SDS011;65503;48.534;9.062;2024-03-17T09:47:20;5.32;;;3.03;;
76610;SDS011;65503;48.534;9.062;2024-03-17T09:49:47;5.85;;;2.70;;
76610;SDS011;65503;48.534;9.062;2024-03-17T09:52:23;5.00;;;2.40;;
76610;SDS011;65503;48.534;9.062;2024-03-17T09:54:53;4.55;;;2.40;;
76610;SDS011;65503;48.534;9.062;2024-03-17T09:57:23;5.75;;;2.63;;
76610;SDS011;65503;48.534;9.062;2024-03-17T09:59:50;5.18;;;2.40;;
76610;SDS011;65503;48.534;9.062;2024-03-17T10:02:19;5.32;;;2.70;;
76610;SDS011;65503;48.534;9.062;2024-03-17T10:04:45;7.90;;;2.65;;
76610;SDS011;65503;48.534;9.062;2024-03-17T10:07:11;6.68;;;2.67;;
76610;SDS011;65503;48.534;9.062;2024-03-17T10:09:36;5.57;;;3.10;;
76610;SDS011;65503;48.534;9.062;2024-03-17T10:12:03;5.75;;;3.03;;
76610;SDS011;65503;48.534;9.062;2024-03-17T10:14:28;6.93;;;3.00;;
76610;SDS011;65503;48.534;9.062;2024-03-17T10:16:54;6.63;;;2.50;;
76610;SDS011;65503;48.534;9.062;2024-03-17T10:19:24;4.85;;;2.63;;
76610;SDS011;65503;48.534;9.062;2024-03-17T10:21:58;4.18;;;2.38;;
76610;SDS011;65503;48.534;9.062;2024-03-17T10:24:26;5.72;;;2.38;;
76610;SDS011;65503;48.534;9.062;2024-03-17T10:26:57;4.20;;;2.05;;
76610;SDS011;65503;48.534;9.062;2024-03-17T10:29:25;16.08;;;2.30;;
76610;SDS011;65503;48.534;9.062;2024-03-17T10:31:55;2.55;;;1.65;;
76610;SDS011;65503;48.534;9.062;2024-03-17T10:34:27;4.80;;;1.60;;
76610;SDS011;65503;48.534;9.062;2024-03-17T10:37:09;3.67;;;1.90;;
76610;SDS011;65503;48.534;9.062;2024-03-17T10:39:38;4.65;;;1.88;;
76610;SDS011;65503;48.534;9.062;2024-03-17T10:42:06;2.92;;;1.40;;
76610;SDS011;65503;48.534;9.062;2024-03-17T10:44:36;4.20;;;1.20;;
76610;SDS011;65503;48.534;9.062;2024-03-17T10:47:04;3.75;;;1.30;;
76610;SDS011;65503;48.534;9.062;2024-03-17T10:49:37;3.47;;;1.30;;
76610;SDS011;65503;48.534;9.062;2024-03-17T10:52:07;4.90;;;1.40;;
76610;SDS011;65503;48.534;9.062;2024-03-17T10:54:46;5.38;;;1.38;;
76610;SDS011;65503;48.534;9.062;2024-03-17T10:57:24;3.10;;;1.20;;
76610;SDS011;65503;48.534;9.062;2024-03-17T10:59:57;5.53;;;1.10;;
76610;SDS011;65503;48.534;9.062;2024-03-17T11:02:27;3.88;;;1.80;;
76610;SDS011;65503;48.534;9.062;2024-03-17T11:04:58;2.10;;;1.20;;
76610;SDS011;65503;48.534;9.062;2024-03-17T11:07:26;4.50;;;1.40;;
76610;SDS011;65503;48.534;9.062;2024-03-17T11:09:53;2.38;;;1.00;;
76610;SDS011;65503;48.534;9.062;2024-03-17T11:17:51;2.22;;;1.20;;
76610;SDS011;65503;48.534;9.062;2024-03-17T11:20:20;5.43;;;1.10;;
76610;SDS011;65503;48.534;9.062;2024-03-17T11:22:51;2.60;;;1.08;;
76610;SDS011;65503;48.534;9.062;2024-03-17T11:27:59;4.63;;;1.20;;
76610;SDS011;65503;48.534;9.062;2024-03-17T11:41:53;3.85;;;1.42;;
76610;SDS011;65503;48.534;9.062;2024-03-17T11:49:25;5.55;;;1.20;;
76610;SDS011;65503;48.534;9.062;2024-03-17T11:51:52;3.40;;;1.17;;
76610;SDS011;65503;48.534;9.062;2024-03-17T11:54:23;4.97;;;1.15;;
76610;SDS011;65503;48.534;9.062;2024-03-17T11:57:01;3.10;;;1.30;;
76610;SDS011;65503;48.534;9.062;2024-03-17T11:59:28;4.40;;;1.70;;
76610;SDS011;65503;48.534;9.062;2024-03-17T12:01:54;3.13;;;1.15;;
76610;SDS011;65503;48.534;9.062;2024-03-17T12:04:21;4.63;;;1.30;;
76610;SDS011;65503;48.534;9.062;2024-03-17T12:06:48;3.45;;;1.23;;
76610;SDS011;65503;48.534;9.062;2024-03-17T12:09:19;3.70;;;1.23;;
76610;SDS011;65503;48.534;9.062;2024-03-17T12:11:59;2.83;;;1.30;;
76610;SDS011;65503;48.534;9.062;2024-03-17T12:14:33;3.28;;;1.10;;
76610;SDS011;65503;48.534;9.062;2024-03-17T12:17:02;2.50;;;0.82;;
76610;SDS011;65503;48.534;9.062;2024-03-17T12:19:29;2.75;;;0.85;;
76610;SDS011;65503;48.534;9.062;2024-03-17T12:21:56;2.92;;;0.98;;
76610;SDS011;65503;48.534;9.062;2024-03-17T12:24:26;2.28;;;1.00;;
76610;SDS011;65503;48.534;9.062;2024-03-17T12:26:54;5.43;;;1.33;;
76610;SDS011;65503;48.534;9.062;2024-03-17T12:29:22;3.78;;;1.30;;
76610;SDS011;65503;48.534;9.062;2024-03-17T12:31:54;4.82;;;1.30;;
76610;SDS011;65503;48.534;9.062;2024-03-17T12:34:21;2.67;;;1.08;;
76610;SDS011;65503;48.534;9.062;2024-03-17T12:36:47;3.17;;;1.52;;
76610;SDS011;65503;48.534;9.062;2024-03-17T12:39:33;4.50;;;1.30;;
76610;SDS011;65503;48.534;9.062;2024-03-17T12:42:10;2.05;;;0.88;;
76610;SDS011;65503;48.534;9.062;2024-03-17T12:44:39;8.15;;;1.40;;
76610;SDS011;65503;48.534;9.062;2024-03-17T12:47:14;5.20;;;1.40;;
76610;SDS011;65503;48.534;9.062;2024-03-17T12:49:51;2.58;;;1.13;;
76610;SDS011;65503;48.534;9.062;2024-03-17T12:52:30;2.90;;;1.10;;
76610;SDS011;65503;48.534;9.062;2024-03-17T12:58:07;1.60;;;0.90;;
76610;SDS011;65503;48.534;9.062;2024-03-17T13:01:02;2.20;;;1.00;;
76610;SDS011;65503;48.534;9.062;2024-03-17T13:03:32;3.40;;;0.85;;
76610;SDS011;65503;48.534;9.062;2024-03-17T13:06:00;3.13;;;1.30;;
76610;SDS011;65503;48.534;9.062;2024-03-17T13:08:28;3.83;;;1.15;;
76610;SDS011;65503;48.534;9.062;2024-03-17T13:10:54;2.13;;;1.08;;
76610;SDS011;65503;48.534;9.062;2024-03-17T13:13:19;4.53;;;1.27;;
76610;SDS011;65503;48.534;9.062;2024-03-17T13:15:45;2.25;;;1.08;;
76610;SDS011;65503;48.534;9.062;2024-03-17T13:18:15;3.15;;;1.00;;
76610;SDS011;65503;48.534;9.062;2024-03-17T13:20:43;4.40;;;1.08;;
76610;SDS011;65503;48.534;9.062;2024-03-17T13:23:09;3.50;;;1.20;;
76610;SDS011;65503;48.534;9.062;2024-03-17T13:25:34;7.97;;;1.52;;
76610;SDS011;65503;48.534;9.062;2024-03-17T13:28:05;4.30;;;1.38;;
76610;SDS011;65503;48.534;9.062;2024-03-17T13:30:32;5.45;;;1.20;;
76610;SDS011;65503;48.534;9.062;2024-03-17T13:33:01;2.38;;;1.08;;
76610;SDS011;65503;48.534;9.062;2024-03-17T13:35:33;4.05;;;1.42;;
76610;SDS011;65503;48.534;9.062;2024-03-17T13:38:00;5.63;;;1.20;;
76610;SDS011;65503;48.534;9.062;2024-03-17T13:40:27;4.57;;;1.00;;
76610;SDS011;65503;48.534;9.062;2024-03-17T13:42:54;4.68;;;1.35;;
76610;SDS011;65503;48.534;9.062;2024-03-17T13:45:21;2.67;;;1.10;;
76610;SDS011;65503;48.534;9.062;2024-03-17T13:47:50;3.92;;;0.95;;
76610;SDS011;65503;48.534;9.062;2024-03-17T13:50:18;4.57;;;1.00;;
76610;SDS011;65503;48.534;9.062;2024-03-17T13:52:44;4.50;;;1.17;;
76610;SDS011;65503;48.534;9.062;2024-03-17T13:55:12;4.68;;;0.98;;
76610;SDS011;65503;48.534;9.062;2024-03-17T13:57:40;2.75;;;0.75;;
76610;SDS011;65503;48.534;9.062;2024-03-17T14:00:07;2.08;;;0.77;;
76610;SDS011;65503;48.534;9.062;2024-03-17T14:02:33;4.22;;;0.80;;
76610;SDS011;65503;48.534;9.062;2024-03-17T14:04:59;2.00;;;0.77;;
76610;SDS011;65503;48.534;9.062;2024-03-17T14:07:24;4.13;;;1.00;;
76610;SDS011;65503;48.534;9.062;2024-03-17T14:09:50;2.45;;;0.70;;
76610;SDS011;65503;48.534;9.062;2024-03-17T14:12:16;4.38;;;0.80;;
76610;SDS011;65503;48.534;9.062;2024-03-17T14:14:41;1.50;;;0.70;;
76610;SDS011;65503;48.534;9.062;2024-03-17T14:17:09;3.45;;;1.45;;
76610;SDS011;65503;48.534;9.062;2024-03-17T14:19:34;4.13;;;0.95;;
76610;SDS011;65503;48.534;9.062;2024-03-17T14:22:01;3.35;;;0.80;;
76610;SDS011;65503;48.534;9.062;2024-03-17T14:24:26;1.65;;;0.57;;
76610;SDS011;65503;48.534;9.062;2024-03-17T14:26:52;1.65;;;0.90;;
76610;SDS011;65503;48.534;9.062;2024-03-17T14:29:18;2.72;;;0.60;;
76610;SDS011;65503;48.534;9.062;2024-03-17T14:31:43;1.33;;;0.55;;
76610;SDS011;65503;48.534;9.062;2024-03-17T14:34:10;3.45;;;1.02;;
76610;SDS011;65503;48.534;9.062;2024-03-17T14:36:36;3.03;;;0.70;;
76610;SDS011;65503;48.534;9.062;2024-03-17T14:39:02;3.42;;;0.80;;
76610;SDS011;65503;48.534;9.062;2024-03-17T14:41:29;1.35;;;0.60;;
76610;SDS011;65503;48.534;9.062;2024-03-17T14:43:56;2.92;;;1.05;;
76610;SDS011;65503;48.534;9.062;2024-03-17T14:46:22;7.40;;;1.00;;
76610;SDS011;65503;48.534;9.062;2024-03-17T14:48:49;2.38;;;1.00;;
76610;SDS011;65503;48.534;9.062;2024-03-17T14:51:19;2.83;;;0.90;;
76610;SDS011;65503;48.534;9.062;2024-03-17T14:53:48;3.72;;;0.80;;
76610;SDS011;65503;48.534;9.062;2024-03-17T14:56:15;2.35;;;0.88;;
76610;SDS011;65503;48.534;9.062;2024-03-17T14:58:44;2.90;;;0.88;;
76610;SDS011;65503;48.534;9.062;2024-03-17T15:01:11;2.22;;;0.65;;
76610;SDS011;65503;48.534;9.062;2024-03-17T15:03:37;4.28;;;1.00;;
76610;SDS011;65503;48.534;9.062;2024-03-17T15:06:03;2.20;;;0.80;;
76610;SDS011;65503;48.534;9.062;2024-03-17T15:08:33;2.20;;;0.52;;
76610;SDS011;65503;48.534;9.062;2024-03-17T15:10:59;4.25;;;0.70;;
76610;SDS011;65503;48.534;9.062;2024-03-17T15:13:25;2.80;;;0.73;;
76610;SDS011;65503;48.534;9.062;2024-03-17T15:15:50;2.80;;;1.00;;
76610;SDS011;65503;48.534;9.062;2024-03-17T15:18:17;3.60;;;0.77;;
76610;SDS011;65503;48.534;9.062;2024-03-17T15:20:43;1.75;;;0.90;;